Time;durP1;ratioP1;P1;durP2;ratioP2;P2;SDS_P1;SDS_P2;PMS_P1;PMS_P2;Temp;Humidity;BMP_temperature;BMP_pressure;BME280_temperature;BME280_humidity;BME280_pressure;Samples;Min_cycle;Max_cycle;Signal;HPM_P1;HPM_P2
2022/12/29 00:02:03;;;;;;;12.77;7.03;;;;;;;6.14;82.87;100152.96;1663891;85;21552;-81
2022/12/29 00:04:30;;;;;;;13.13;7.30;;;;;;;6.15;82.88;100142.09;1663767;84;21030;-80
2022/12/29 00:06:57;;;;;;;15.63;8.13;;;;;;;6.14;82.81;100139.95;1663894;84;21527;-80
2022/12/29 00:09:26;;;;;;;13.83;6.40;;;;;;;6.15;82.80;100137.78;1663758;84;21066;-80
2022/12/29 00:11:53;;;;;;;16.53;6.70;;;;;;;6.15;82.72;100123.88;1663767;84;21264;-82
2022/12/29 00:17:06;;;;;;;12.37;6.10;;;;;;;6.17;82.70;100124.71;1663906;84;21087;-82
2022/12/29 00:36:27;;;;;;;8.67;4.43;;;;;;;6.20;82.46;100114.23;1654739;85;21074;-79
2022/12/29 00:44:37;;;;;;;7.33;4.43;;;;;;;6.20;82.38;100095.55;1644852;85;21130;-82
2022/12/29 00:47:04;;;;;;;7.40;4.00;;;;;;;6.21;82.31;100095.98;1667838;84;21032;-79
2022/12/29 00:49:32;;;;;;;6.83;4.03;;;;;;;6.21;82.27;100105.09;1654729;85;21260;-79
2022/12/29 00:52:08;;;;;;;6.90;3.63;;;;;;;6.23;82.26;100098.53;1650958;85;21096;-79
2022/12/29 00:54:41;;;;;;;8.07;3.90;;;;;;;6.23;82.14;100098.53;1648811;85;21062;-81
2022/12/29 00:57:10;;;;;;;8.07;4.67;;;;;;;6.22;82.07;100092.93;1668586;85;21068;-80
2022/12/29 00:59:42;;;;;;;8.43;4.83;;;;;;;6.21;82.04;100091.23;1662186;85;21580;-82
2022/12/29 01:02:10;;;;;;;11.43;6.63;;;;;;;6.21;82.01;100103.80;1652034;86;21567;-79
2022/12/29 01:04:38;;;;;;;11.47;6.50;;;;;;;6.21;81.99;100096.44;1654684;85;21140;-81
2022/12/29 01:07:05;;;;;;;9.73;4.70;;;;;;;6.19;81.97;100093.86;1652907;85;21083;-80
2022/12/29 01:12:40;;;;;;;9.47;5.20;;;;;;;6.19;81.89;100093.02;1654708;86;21078;-79
2022/12/29 01:14:47;;;;;;;9.93;6.03;;;;;;;6.18;81.90;100097.36;1657040;85;21058;-79
2022/12/29 01:17:14;;;;;;;12.43;8.40;;;;;;;6.16;81.86;100096.98;1656724;85;21291;-81
2022/12/29 01:19:41;;;;;;;14.37;6.07;;;;;;;6.16;81.85;100088.73;1657342;85;21078;-79
2022/12/29 01:22:08;;;;;;;10.33;4.63;;;;;;;6.14;81.82;100093.56;1659395;85;21082;-79
2022/12/29 01:24:35;;;;;;;10.03;5.87;;;;;;;6.14;81.83;100084.00;1667407;85;21111;-79
2022/12/29 01:27:18;;;;;;;11.77;6.97;;;;;;;6.14;81.84;100084.45;1649606;85;21125;-79
2022/12/29 01:29:40;;;;;;;10.27;6.20;;;;;;;6.13;81.84;100080.16;1619043;86;21007;-79
2022/12/29 01:32:07;;;;;;;13.37;6.10;;;;;;;6.11;81.84;100081.47;1628807;87;21071;-78
2022/12/29 01:34:34;;;;;;;9.37;4.53;;;;;;;6.12;81.83;100079.27;1639951;86;21516;-80
2022/12/29 01:37:01;;;;;;;9.37;3.63;;;;;;;6.12;81.85;100072.77;1637640;86;21130;-82
2022/12/29 01:39:28;;;;;;;6.63;4.00;;;;;;;6.13;81.82;100066.69;1631106;87;21082;-81
2022/12/29 01:41:55;;;;;;;7.90;3.37;;;;;;;6.13;81.81;100063.23;1631109;87;21355;-81
2022/12/29 01:44:50;;;;;;;7.53;3.60;;;;;;;6.12;81.77;100069.31;1627545;87;21046;-81
2022/12/29 01:47:39;;;;;;;5.50;3.30;;;;;;;6.12;81.76;100058.91;1622185;87;21525;-79
2022/12/29 01:50:32;;;;;;;7.50;3.77;;;;;;;6.12;81.71;100056.30;1629920;86;21062;-79
2022/12/29 01:53:16;;;;;;;9.07;4.00;;;;;;;6.11;81.72;100051.55;1629180;87;21011;-79
2022/12/29 01:55:51;;;;;;;6.77;3.80;;;;;;;6.09;81.68;100052.48;1640248;86;21122;-80
2022/12/29 01:58:22;;;;;;;8.73;3.53;;;;;;;6.07;81.66;100052.53;1632822;86;21129;-80
2022/12/29 02:00:49;;;;;;;5.83;3.53;;;;;;;6.04;81.69;100047.37;1637506;86;21022;-80
2022/12/29 02:03:19;;;;;;;6.57;3.50;;;;;;;6.02;81.69;100045.28;1630724;87;21547;-80
2022/12/29 02:05:54;;;;;;;5.15;3.02;;;;;;;6.01;81.72;100047.03;1642527;86;21031;-80
2022/12/29 02:08:24;;;;;;;7.03;3.47;;;;;;;6.01;81.74;100041.83;1630550;86;21324;-81
2022/12/29 02:10:52;;;;;;;5.75;3.10;;;;;;;6.00;81.75;100028.39;1630945;87;21003;-81
2022/12/29 02:13:23;;;;;;;5.58;3.17;;;;;;;6.01;81.79;100030.55;1629498;87;21090;-79
2022/12/29 02:16:18;;;;;;;4.20;2.80;;;;;;;6.02;81.79;100031.82;1631230;87;20974;-82
2022/12/29 02:19:00;;;;;;;4.67;2.80;;;;;;;6.04;81.79;100025.27;1633405;86;21109;-80
2022/12/29 02:21:58;;;;;;;5.13;2.83;;;;;;;6.07;81.80;100019.13;1639138;86;22129;-82
2022/12/29 02:24:53;;;;;;;4.20;2.40;;;;;;;6.09;81.78;100023.86;1622350;86;21085;-81
2022/12/29 02:27:44;;;;;;;4.83;2.70;;;;;;;6.09;81.67;100018.20;1631150;86;21070;-80
2022/12/29 02:30:32;;;;;;;5.27;2.70;;;;;;;6.11;81.65;100019.02;1625771;86;21027;-78
2022/12/29 02:33:13;;;;;;;7.53;3.63;;;;;;;6.13;81.64;100019.85;1611165;87;21046;-80
2022/12/29 02:36:10;;;;;;;7.23;3.53;;;;;;;6.15;81.58;100008.09;1623902;87;21212;-81
2022/12/29 02:39:08;;;;;;;5.57;2.90;;;;;;;6.15;81.49;100010.27;1631254;85;20980;-79
2022/12/29 02:42:11;;;;;;;6.47;2.87;;;;;;;6.16;81.44;100005.91;1624478;87;21030;-80
2022/12/29 02:45:07;;;;;;;3.27;2.27;;;;;;;6.19;81.41;100012.34;1623987;88;21023;-80
2022/12/29 02:47:58;;;;;;;4.73;2.33;;;;;;;6.20;81.41;100011.43;1623412;87;21102;-80
2022/12/29 02:50:39;;;;;;;5.57;2.73;;;;;;;6.23;81.31;100016.55;1620938;88;21110;-81
2022/12/29 02:53:11;;;;;;;4.63;2.53;;;;;;;6.23;81.22;100017.41;1595309;88;21065;-80
2022/12/29 02:55:40;;;;;;;4.20;2.57;;;;;;;6.25;81.20;100016.92;1637234;85;21046;-80
2022/12/29 02:58:22;;;;;;;4.70;2.43;;;;;;;6.27;81.14;100009.09;1569767;90;21106;-80
2022/12/29 03:00:58;;;;;;;5.70;2.50;;;;;;;6.30;81.10;100009.01;1624142;87;21602;-81
2022/12/29 03:04:10;;;;;;;5.17;2.57;;;;;;;6.32;81.05;99999.84;1623080;88;21165;-80
2022/12/29 03:07:05;;;;;;;3.80;2.40;;;;;;;6.35;81.03;99997.19;1624038;87;21103;-78
2022/12/29 03:09:42;;;;;;;3.90;2.40;;;;;;;6.36;80.97;99998.44;1624170;86;21057;-79
2022/12/29 03:18:48;;;;;;;3.37;2.03;;;;;;;6.43;80.96;100000.00;1624050;88;21203;-80
2022/12/29 03:21:20;;;;;;;4.72;1.98;;;;;;;6.47;80.96;100000.30;1624092;87;21070;-80
2022/12/29 03:23:49;;;;;;;3.77;1.83;;;;;;;6.51;81.01;99998.47;1636626;86;21071;-80
2022/12/29 03:26:19;;;;;;;3.60;1.90;;;;;;;6.51;80.96;99999.77;1646188;85;21116;-80
2022/12/29 03:28:53;;;;;;;2.75;1.72;;;;;;;6.50;81.03;100000.67;1632461;85;21090;-80
2022/12/29 03:31:23;;;;;;;2.63;1.70;;;;;;;6.48;81.04;99995.52;1628903;85;21982;-81
2022/12/29 03:33:53;;;;;;;3.90;1.90;;;;;;;6.47;81.07;99987.29;1623152;85;21534;-81
2022/12/29 03:36:43;;;;;;;6.03;1.87;;;;;;;6.48;81.17;99978.60;1640444;87;21046;-82
2022/12/29 03:39:16;;;;;;;3.17;1.87;;;;;;;6.51;81.15;99978.09;1640403;85;21516;-81
2022/12/29 03:41:45;;;;;;;3.57;1.87;;;;;;;6.53;81.16;99970.64;1640305;85;21053;-81
2022/12/29 03:44:14;;;;;;;3.33;1.62;;;;;;;6.57;81.17;99966.20;1642287;85;21319;-81
2022/12/29 03:46:41;;;;;;;2.80;1.67;;;;;;;6.60;81.10;99970.89;1658243;85;21109;-80
2022/12/29 03:49:08;;;;;;;4.17;1.73;;;;;;;6.62;81.06;99966.51;1644604;84;21073;-80
2022/12/29 03:51:35;;;;;;;4.77;1.90;;;;;;;6.65;81.01;99962.94;1640224;85;21042;-81
2022/12/29 03:54:03;;;;;;;5.90;1.77;;;;;;;6.69;81.02;99969.33;1640449;85;21117;-82
2022/12/29 03:56:30;;;;;;;3.57;1.60;;;;;;;6.72;81.04;99972.75;1640325;85;21511;-81
2022/12/29 03:58:58;;;;;;;3.30;1.60;;;;;;;6.73;80.96;99981.80;1640401;87;21129;-81
2022/12/29 04:01:30;;;;;;;3.07;1.67;;;;;;;6.74;80.99;99973.57;1639786;85;21070;-80
2022/12/29 04:03:57;;;;;;;2.63;1.80;;;;;;;6.76;81.04;99976.96;1663302;85;21350;-80
2022/12/29 04:06:24;;;;;;;3.87;1.70;;;;;;;6.74;81.02;99976.17;1642820;85;21102;-81
2022/12/29 04:08:55;;;;;;;2.40;1.43;;;;;;;6.72;81.00;99975.36;1640305;85;21098;-81
2022/12/29 04:11:22;;;;;;;2.87;1.43;;;;;;;6.70;81.02;99967.57;1640284;85;21030;-81
2022/12/29 04:13:50;;;;;;;2.37;1.40;;;;;;;6.69;81.01;99959.36;1640412;87;21116;-82
2022/12/29 04:16:19;;;;;;;3.30;1.90;;;;;;;6.67;81.03;99958.55;1640339;85;21049;-80
2022/12/29 04:18:46;;;;;;;3.80;1.67;;;;;;;6.67;81.12;99962.45;1647887;85;21084;-81
2022/12/29 04:21:13;;;;;;;3.07;1.77;;;;;;;6.67;81.15;99955.48;1646736;85;21265;-81
2022/12/29 04:23:41;;;;;;;4.40;1.63;;;;;;;6.68;81.06;99951.16;1644895;85;20943;-81
2022/12/29 04:26:10;;;;;;;3.03;1.73;;;;;;;6.68;81.05;99955.91;1643585;86;21030;-81
2022/12/29 04:28:47;;;;;;;4.17;2.47;;;;;;;6.72;81.10;99959.27;1624619;87;21030;-80
2022/12/29 04:31:16;;;;;;;4.37;1.93;;;;;;;6.73;80.98;99953.16;1643383;85;21595;-81
2022/12/29 04:33:45;;;;;;;5.67;1.97;;;;;;;6.77;80.95;99948.73;1633605;85;21818;-81
2022/12/29 04:36:12;;;;;;;3.93;1.90;;;;;;;6.80;80.87;99957.30;1639899;85;21121;-82
2022/12/29 04:38:39;;;;;;;3.97;2.10;;;;;;;6.84;80.77;99958.06;1633248;86;21073;-80
2022/12/29 04:41:07;;;;;;;3.70;2.00;;;;;;;6.86;80.63;99963.64;1633218;85;21053;-81
2022/12/29 04:43:36;;;;;;;3.63;1.97;;;;;;;6.90;80.51;99963.09;1630809;85;21043;-81
2022/12/29 04:46:05;;;;;;;3.70;1.80;;;;;;;6.91;80.43;99959.61;1634143;86;21504;-80
2022/12/29 04:48:50;;;;;;;3.43;1.80;;;;;;;6.93;80.28;99953.45;1633260;85;21527;-82
2022/12/29 04:51:32;;;;;;;4.30;2.13;;;;;;;6.97;80.16;99941.19;1639445;86;21020;-80
2022/12/29 04:53:59;;;;;;;2.83;1.60;;;;;;;6.99;80.04;99933.33;1648274;85;21077;-80
2022/12/29 04:56:27;;;;;;;3.83;1.80;;;;;;;7.00;79.98;99931.13;1615555;87;21085;-81
2022/12/29 04:58:54;;;;;;;4.63;2.10;;;;;;;7.01;79.96;99926.30;1633150;87;21159;-80
2022/12/29 05:01:22;;;;;;;5.40;1.90;;;;;;;7.03;79.87;99934.48;1633370;85;20946;-80
2022/12/29 05:03:51;;;;;;;4.37;1.70;;;;;;;7.04;79.81;99920.99;1633191;87;21003;-81
2022/12/29 05:06:19;;;;;;;3.50;1.93;;;;;;;7.04;79.79;99929.69;1633445;85;21567;-81
2022/12/29 05:08:46;;;;;;;3.97;2.10;;;;;;;7.06;79.71;99925.72;1638423;85;21385;-80
2022/12/29 05:11:13;;;;;;;4.20;2.17;;;;;;;7.08;79.75;99924.77;1647110;85;22338;-79
2022/12/29 05:13:40;;;;;;;3.50;1.90;;;;;;;7.11;79.57;99921.23;1633531;85;21077;-81
2022/12/29 05:16:08;;;;;;;5.93;1.87;;;;;;;7.12;79.58;99926.41;1633159;85;21098;-82
2022/12/29 05:18:35;;;;;;;6.07;2.57;;;;;;;7.15;79.47;99905.91;1633529;85;22423;-81
2022/12/29 05:21:04;;;;;;;7.73;3.27;;;;;;;7.17;79.39;99901.94;1633220;87;21536;-79
2022/12/29 05:23:31;;;;;;;6.93;3.70;;;;;;;7.16;79.28;99902.39;1633144;85;21990;-81
2022/12/29 05:26:03;;;;;;;3.20;1.93;;;;;;;7.13;79.25;99899.44;1650439;85;21047;-81
2022/12/29 05:28:48;;;;;;;6.27;3.17;;;;;;;7.12;79.18;99898.16;1629635;85;21284;-80
2022/12/29 05:31:17;;;;;;;3.27;1.60;;;;;;;7.09;79.08;99904.31;1639174;84;21091;-80
2022/12/29 05:33:45;;;;;;;3.10;1.70;;;;;;;7.05;79.07;99902.72;1629077;86;21058;-82
2022/12/29 05:36:13;;;;;;;3.23;1.80;;;;;;;7.04;79.02;99902.33;1627515;87;21133;-81
2022/12/29 05:38:42;;;;;;;2.60;1.60;;;;;;;7.02;78.94;99904.58;1627843;88;21070;-79
2022/12/29 05:41:09;;;;;;;3.67;1.80;;;;;;;6.99;78.98;99902.91;1627888;87;21083;-80
2022/12/29 05:43:41;;;;;;;2.53;1.50;;;;;;;6.96;78.91;99904.77;1617645;87;21450;-79
2022/12/29 05:46:10;;;;;;;2.80;1.40;;;;;;;6.90;78.82;99905.35;1636442;86;21118;-79
2022/12/29 05:48:39;;;;;;;2.27;1.40;;;;;;;6.86;78.83;99906.33;1630755;87;22141;-80
2022/12/29 05:51:08;;;;;;;4.30;1.87;;;;;;;6.85;78.91;99902.02;1630457;87;22098;-79
2022/12/29 05:53:43;;;;;;;2.70;1.70;;;;;;;6.82;78.95;99900.81;1615089;87;21475;-79
2022/12/29 05:56:10;;;;;;;3.03;2.00;;;;;;;6.78;78.86;99900.48;1603782;87;21579;-79
2022/12/29 05:58:37;;;;;;;4.90;1.73;;;;;;;6.76;78.92;99884.50;1633250;86;21442;-80
2022/12/29 06:01:04;;;;;;;3.10;1.67;;;;;;;6.75;79.01;99882.34;1625778;86;21139;-80
2022/12/29 06:03:33;;;;;;;4.23;1.93;;;;;;;6.76;79.03;99887.98;1606485;88;21063;-80
2022/12/29 06:06:00;;;;;;;4.60;1.90;;;;;;;6.76;79.03;99895.80;1621249;88;21110;-81
2022/12/29 06:08:27;;;;;;;4.43;1.57;;;;;;;6.77;79.13;99890.98;1621376;88;21039;-80
2022/12/29 06:10:54;;;;;;;2.77;1.57;;;;;;;6.76;79.05;99889.28;1621155;88;21067;-80
2022/12/29 06:13:22;;;;;;;4.33;2.03;;;;;;;6.76;79.21;99898.40;1621427;88;21123;-79
2022/12/29 06:15:51;;;;;;;4.03;2.10;;;;;;;6.79;79.22;99899.61;1621060;87;21057;-80
2022/12/29 06:18:19;;;;;;;3.20;1.70;;;;;;;6.82;79.25;99894.30;1601953;88;21166;-80
2022/12/29 06:20:46;;;;;;;2.03;1.47;;;;;;;6.86;79.28;99898.97;1610400;88;21099;-80
2022/12/29 06:23:15;;;;;;;3.17;1.80;;;;;;;6.88;79.29;99894.57;1579744;88;21040;-80
2022/12/29 06:25:42;;;;;;;3.63;1.53;;;;;;;6.91;79.28;99904.89;1624989;88;21133;-84
2022/12/29 06:28:10;;;;;;;6.33;3.07;;;;;;;6.95;79.24;99906.95;1610052;88;21080;-83
2022/12/29 06:30:37;;;;;;;4.43;2.67;;;;;;;6.97;79.22;99904.70;1635271;85;21042;-82
2022/12/29 06:33:05;;;;;;;6.93;2.77;;;;;;;6.98;79.17;99905.09;1636233;86;21067;-80
2022/12/29 06:35:32;;;;;;;5.03;2.70;;;;;;;6.98;79.16;99904.25;1653752;86;21028;-76
2022/12/29 06:37:59;;;;;;;3.50;2.30;;;;;;;6.99;79.12;99906.82;1653581;85;21391;-74
2022/12/29 06:40:26;;;;;;;5.23;2.20;;;;;;;6.99;79.08;99905.98;1653719;86;21559;-76
2022/12/29 06:43:12;;;;;;;10.93;5.30;;;;;;;6.98;79.06;99901.19;1645839;85;21583;-77
2022/12/29 06:45:51;;;;;;;9.03;3.60;;;;;;;6.97;79.03;99902.09;1645363;85;21085;-73
2022/12/29 06:48:18;;;;;;;7.20;3.40;;;;;;;6.97;79.07;99903.41;1643414;85;22274;-77
2022/12/29 06:50:45;;;;;;;4.33;2.60;;;;;;;6.97;79.12;99906.47;1615501;86;21145;-78
2022/12/29 06:53:12;;;;;;;4.73;3.00;;;;;;;6.97;79.10;99909.06;1644747;85;21075;-76
2022/12/29 06:55:39;;;;;;;5.20;2.60;;;;;;;6.96;79.03;99903.47;1642818;85;21155;-76
2022/12/29 06:58:06;;;;;;;3.67;2.20;;;;;;;6.95;79.08;99914.31;1624456;87;21077;-81
2022/12/29 07:00:33;;;;;;;5.00;2.63;;;;;;;6.95;78.99;99909.55;1616256;86;21141;-82
2022/12/29 07:03:00;;;;;;;4.57;2.17;;;;;;;6.94;78.98;99907.41;1603877;87;21100;-77
2022/12/29 07:05:27;;;;;;;4.07;2.40;;;;;;;6.92;78.96;99906.13;1608740;87;21048;-76
2022/12/29 07:07:55;;;;;;;3.70;2.37;;;;;;;6.93;78.95;99912.22;1613041;87;21090;-77
2022/12/29 07:10:23;;;;;;;4.13;2.10;;;;;;;6.90;78.92;99901.45;1610245;87;21151;-77
2022/12/29 07:12:50;;;;;;;3.83;1.90;;;;;;;6.90;78.94;99895.35;1614127;87;22059;-76
2022/12/29 07:15:18;;;;;;;3.90;2.00;;;;;;;6.89;78.89;99901.02;1612392;87;21904;-80
2022/12/29 07:17:45;;;;;;;4.27;2.00;;;;;;;6.86;78.92;99898.51;1606712;87;21069;-77
2022/12/29 07:20:12;;;;;;;3.40;2.10;;;;;;;6.84;78.86;99895.09;1602587;87;20992;-78
2022/12/29 07:22:39;;;;;;;4.00;2.40;;;;;;;6.82;78.88;99899.97;1613025;87;21091;-77
2022/12/29 07:25:07;;;;;;;3.80;2.20;;;;;;;6.80;78.91;99903.06;1643932;85;21082;-75
2022/12/29 07:27:34;;;;;;;3.10;2.10;;;;;;;6.78;78.86;99906.15;1644363;85;21962;-73
2022/12/29 07:30:01;;;;;;;4.23;2.50;;;;;;;6.76;78.89;99897.52;1617175;86;21133;-71
2022/12/29 07:32:30;;;;;;;5.43;2.27;;;;;;;6.74;78.79;99896.73;1589274;89;21823;-72
2022/12/29 07:34:57;;;;;;;3.67;2.20;;;;;;;6.71;78.80;99904.19;1577204;88;21051;-74
2022/12/29 07:37:24;;;;;;;4.27;2.53;;;;;;;6.69;78.81;99899.01;1576540;89;21133;-74
2022/12/29 07:39:51;;;;;;;5.47;2.43;;;;;;;6.68;78.80;99912.94;1576761;89;21817;-74
2022/12/29 07:42:18;;;;;;;4.77;2.30;;;;;;;6.70;78.86;99915.48;1576500;89;21367;-76
2022/12/29 07:44:47;;;;;;;5.20;2.47;;;;;;;6.69;78.81;99918.55;1576309;89;21150;-79
2022/12/29 07:47:28;;;;;;;4.33;2.63;;;;;;;6.72;78.87;99922.81;1575804;89;21106;-86
2022/12/29 07:49:55;;;;;;;8.33;4.17;;;;;;;6.74;78.90;99913.21;1576888;90;21142;-75
2022/12/29 07:52:22;;;;;;;7.27;2.90;;;;;;;6.75;78.91;99918.81;1576799;90;21153;-74
2022/12/29 07:54:50;;;;;;;6.20;3.13;;;;;;;6.75;78.95;99921.88;1576305;88;21576;-78
2022/12/29 07:57:17;;;;;;;5.80;2.60;;;;;;;6.73;78.99;99913.23;1576577;90;21107;-76
2022/12/29 07:59:44;;;;;;;4.47;2.60;;;;;;;6.72;78.96;99914.16;1575933;89;21151;-75
2022/12/29 08:02:11;;;;;;;7.27;3.47;;;;;;;6.71;79.08;99912.00;1575305;90;21149;-75
2022/12/29 08:04:39;;;;;;;7.23;4.00;;;;;;;6.70;79.08;99909.81;1576665;89;21153;-77
2022/12/29 08:07:06;;;;;;;7.47;4.27;;;;;;;6.70;79.11;99911.58;1576060;89;21071;-75
2022/12/29 08:09:33;;;;;;;7.80;4.40;;;;;;;6.68;79.09;99905.58;1576629;89;21110;-74
2022/12/29 08:12:00;;;;;;;5.97;3.27;;;;;;;6.67;79.09;99909.91;1577007;89;21111;-73
2022/12/29 08:14:27;;;;;;;6.70;2.97;;;;;;;6.67;79.00;99912.52;1577127;88;21107;-72
2022/12/29 08:16:55;;;;;;;5.80;3.70;;;;;;;6.66;79.07;99912.58;1575897;90;21152;-74
2022/12/29 08:19:23;;;;;;;5.23;2.77;;;;;;;6.66;78.97;99911.27;1576691;89;22228;-76
2022/12/29 08:21:51;;;;;;;4.60;2.83;;;;;;;6.66;78.96;99917.78;1574902;89;21070;-73
2022/12/29 08:24:23;;;;;;;4.67;2.80;;;;;;;6.64;79.04;99913.91;1576582;89;21119;-77
2022/12/29 08:26:58;;;;;;;4.77;2.70;;;;;;;6.62;78.96;99913.12;1576382;89;21082;-77
2022/12/29 08:29:26;;;;;;;4.78;2.37;;;;;;;6.59;78.85;99905.38;1576740;89;21616;-72
2022/12/29 08:31:53;;;;;;;4.47;2.43;;;;;;;6.57;78.90;99895.89;1575420;89;21100;-74
2022/12/29 08:34:20;;;;;;;4.77;2.37;;;;;;;6.54;78.95;99900.77;1601554;88;21120;-73
2022/12/29 08:36:48;;;;;;;4.40;2.43;;;;;;;6.52;78.96;99900.41;1602586;88;21128;-72
2022/12/29 08:39:15;;;;;;;4.10;2.43;;;;;;;6.48;78.99;99913.52;1601988;88;21159;-72
2022/12/29 08:41:43;;;;;;;4.20;2.30;;;;;;;6.50;79.09;99913.91;1585043;88;21145;-72
2022/12/29 08:44:10;;;;;;;3.53;2.33;;;;;;;6.51;79.13;99908.64;1601895;88;21130;-73
2022/12/29 08:46:37;;;;;;;7.53;2.53;;;;;;;6.52;79.21;99904.31;1602228;88;21136;-77
2022/12/29 08:49:04;;;;;;;5.37;2.70;;;;;;;6.54;79.28;99916.81;1602668;88;21124;-77
2022/12/29 08:51:33;;;;;;;5.63;3.00;;;;;;;6.56;79.36;99918.48;1602176;88;21136;-74
2022/12/29 08:54:00;;;;;;;6.53;2.57;;;;;;;6.60;79.42;99919.27;1601969;88;21132;-77
2022/12/29 08:56:28;;;;;;;4.37;2.27;;;;;;;6.64;79.51;99923.48;1618068;86;21840;-76
2022/12/29 08:58:56;;;;;;;4.57;2.40;;;;;;;6.68;79.58;99914.24;1602491;88;21106;-76
2022/12/29 09:01:24;;;;;;;4.90;2.70;;;;;;;6.72;79.62;99912.84;1602548;88;21161;-74
2022/12/29 09:03:53;;;;;;;8.00;3.00;;;;;;;6.78;79.70;99915.27;1602926;88;21142;-71
2022/12/29 09:06:20;;;;;;;5.47;3.70;;;;;;;6.84;79.77;99913.78;1601918;88;22506;-73
2022/12/29 09:08:47;;;;;;;10.57;3.70;;;;;;;6.92;79.89;99923.07;1602305;88;21080;-73
2022/12/29 09:11:22;;;;;;;6.67;3.17;;;;;;;7.02;79.90;99918.91;1620705;87;21059;-78
2022/12/29 09:13:50;;;;;;;7.67;3.40;;;;;;;7.10;79.95;99919.08;1606123;88;21214;-73
2022/12/29 09:16:19;;;;;;;4.93;2.40;;;;;;;7.21;80.00;99917.91;1609186;87;21341;-75
2022/12/29 09:18:46;;;;;;;4.20;1.90;;;;;;;7.29;80.00;99930.25;1607696;88;21577;-76
2022/12/29 09:21:14;;;;;;;4.63;2.20;;;;;;;7.38;79.98;99919.06;1609455;87;21031;-71
2022/12/29 09:23:41;;;;;;;6.90;3.10;;;;;;;7.47;79.92;99916.61;1609804;87;21179;-73
2022/12/29 09:26:09;;;;;;;5.10;2.40;;;;;;;7.55;79.84;99917.22;1612562;87;21112;-74
2022/12/29 09:28:36;;;;;;;4.80;2.60;;;;;;;7.62;79.82;99912.68;1612484;87;21585;-70
2022/12/29 09:31:04;;;;;;;3.93;2.30;;;;;;;7.71;79.75;99914.12;1605257;87;21202;-73
2022/12/29 09:33:36;;;;;;;3.60;2.27;;;;;;;7.80;79.70;99909.44;1577696;88;21140;-76
2022/12/29 09:36:01;;;;;;;4.97;2.20;;;;;;;7.92;79.67;99909.93;1577174;88;21106;-78
2022/12/29 09:38:30;;;;;;;5.97;2.83;;;;;;;8.05;79.62;99904.23;1577939;87;21066;-72
2022/12/29 09:41:20;;;;;;;6.13;2.20;;;;;;;8.16;79.45;99909.09;1576672;88;21109;-70
2022/12/29 09:44:07;;;;;;;3.92;2.15;;;;;;;8.29;79.32;99905.61;1580362;88;21600;-77
2022/12/29 09:46:47;;;;;;;4.30;1.80;;;;;;;8.42;79.11;99910.80;1577733;88;21175;-73
2022/12/29 09:49:25;;;;;;;4.17;2.00;;;;;;;8.55;78.90;99902.08;1577178;89;21115;-71
2022/12/29 09:51:57;;;;;;;6.27;2.47;;;;;;;8.65;78.79;99896.07;1576372;88;21138;-73
2022/12/29 09:54:47;;;;;;;5.80;2.63;;;;;;;8.75;78.67;99907.86;1577396;89;21666;-72
2022/12/29 09:57:25;;;;;;;5.12;2.37;;;;;;;8.84;78.47;99910.16;1576078;90;21986;-70
2022/12/29 10:00:19;;;;;;;5.10;2.07;;;;;;;9.00;78.35;99899.94;1576092;90;21134;-74
2022/12/29 10:02:54;;;;;;;3.40;1.97;;;;;;;9.16;78.21;99895.83;1577122;88;21435;-72
2022/12/29 10:05:33;;;;;;;3.07;1.90;;;;;;;9.31;78.04;99895.70;1576857;88;21123;-72
2022/12/29 10:08:14;;;;;;;5.70;2.20;;;;;;;9.46;77.83;99895.52;1576152;89;21076;-72
2022/12/29 10:10:55;;;;;;;2.60;1.80;;;;;;;9.62;77.61;99904.91;1596756;88;22046;-73
2022/12/29 10:13:43;;;;;;;3.63;2.17;;;;;;;9.76;77.45;99892.57;1601085;87;21084;-74
2022/12/29 10:16:21;;;;;;;4.43;2.07;;;;;;;9.92;77.34;99909.77;1596407;87;22632;-76
2022/12/29 10:18:59;;;;;;;2.70;1.67;;;;;;;10.07;77.05;99892.58;1569457;89;21074;-78
2022/12/29 10:22:07;;;;;;;3.40;1.80;;;;;;;10.24;76.95;99894.00;1597107;88;21106;-76
2022/12/29 10:24:38;;;;;;;4.65;1.90;;;;;;;10.33;76.48;99891.46;1601505;87;21113;-76
2022/12/29 10:27:12;;;;;;;4.60;1.87;;;;;;;10.31;76.24;99893.29;1600768;87;21448;-72
2022/12/29 10:29:47;;;;;;;4.45;2.00;;;;;;;10.23;76.10;99885.30;1601347;87;21130;-72
2022/12/29 10:32:29;;;;;;;3.72;2.00;;;;;;;10.14;75.96;99880.47;1594899;88;21099;-72
2022/12/29 10:35:04;;;;;;;5.15;2.60;;;;;;;10.10;76.03;99879.34;1591884;88;21079;-73
2022/12/29 10:37:45;;;;;;;6.58;3.45;;;;;;;10.24;76.13;99879.59;1619855;87;21859;-73
2022/12/29 10:40:42;;;;;;;9.73;5.40;;;;;;;10.44;76.32;99871.72;1620356;87;21099;-71
2022/12/29 10:43:29;;;;;;;8.68;6.10;;;;;;;10.58;76.20;99881.58;1620175;87;21092;-71
2022/12/29 10:46:01;;;;;;;13.93;8.50;;;;;;;10.71;76.23;99876.17;1593872;89;21160;-72
2022/12/29 10:48:34;;;;;;;10.50;6.70;;;;;;;10.82;75.96;99876.15;1618822;88;21067;-72
2022/12/29 10:51:08;;;;;;;12.53;8.18;;;;;;;10.95;75.87;99874.66;1619669;86;21160;-75
2022/12/29 10:53:49;;;;;;;7.53;5.17;;;;;;;11.15;75.84;99875.87;1592155;88;21127;-73
2022/12/29 10:56:36;;;;;;;5.33;3.80;;;;;;;11.35;75.44;99868.81;1574116;89;21111;-72
2022/12/29 10:59:25;;;;;;;6.42;3.52;;;;;;;11.53;75.27;99862.67;1572999;90;21134;-73
2022/12/29 11:02:13;;;;;;;7.35;4.05;;;;;;;11.72;74.73;99857.36;1572566;90;21086;-71
2022/12/29 11:05:04;;;;;;;10.35;6.10;;;;;;;11.92;74.66;99843.70;1571647;90;21990;-75
2022/12/29 11:07:32;;;;;;;5.17;3.47;;;;;;;12.13;74.17;99847.83;1572533;90;21587;-76
2022/12/29 11:10:35;;;;;;;7.12;4.70;;;;;;;12.36;73.99;99848.39;1572377;89;21031;-73
2022/12/29 11:13:19;;;;;;;4.30;1.90;;;;;;;12.50;73.69;99844.58;1512661;94;21167;-74
2022/12/29 11:15:49;;;;;;;3.08;2.00;;;;;;;12.49;73.06;99847.66;1553196;91;21103;-72
2022/12/29 11:18:37;;;;;;;5.67;2.55;;;;;;;12.55;72.67;99843.84;1554719;91;21208;-73
2022/12/29 11:21:08;;;;;;;2.75;1.70;;;;;;;12.58;72.46;99848.09;1549871;91;21119;-75
2022/12/29 11:23:39;;;;;;;5.00;2.87;;;;;;;12.67;72.05;99833.99;1546482;91;21176;-76
2022/12/29 11:26:22;;;;;;;4.20;2.67;;;;;;;12.88;71.60;99831.10;1549931;91;21176;-78
2022/12/29 11:29:23;;;;;;;4.17;2.60;;;;;;;13.07;71.09;99823.88;1551673;91;21139;-77
2022/12/29 11:31:58;;;;;;;3.50;2.10;;;;;;;13.25;70.62;99826.42;1554038;90;22491;-80
2022/12/29 11:34:35;;;;;;;3.87;1.60;;;;;;;13.52;70.31;99818.72;1577976;90;21220;-75
2022/12/29 11:37:19;;;;;;;1.62;1.30;;;;;;;13.77;69.87;99821.62;1574919;90;21020;-75
2022/12/29 11:39:59;;;;;;;2.85;1.27;;;;;;;14.02;69.75;99810.46;1573823;90;21164;-75
2022/12/29 11:42:32;;;;;;;;;;;;;;;14.36;69.26;99807.06;1573597;90;21730;-77
2022/12/29 11:45:24;;;;;;;3.42;1.30;;;;;;;14.70;68.16;99808.45;1568818;90;21276;-76
2022/12/29 11:47:55;;;;;;;5.35;2.05;;;;;;;14.97;68.14;99806.32;1610553;86;22269;-75
2022/12/29 11:50:29;;;;;;;4.60;1.60;;;;;;;15.10;67.63;99805.90;1621839;86;21096;-77
2022/12/29 11:53:05;;;;;;;3.75;1.80;;;;;;;15.01;67.32;99801.68;1621511;86;21085;-74
2022/12/29 11:55:32;;;;;;;3.20;1.55;;;;;;;14.95;67.21;99796.33;1621228;86;21076;-77
2022/12/29 11:58:04;;;;;;;3.92;1.50;;;;;;;14.86;66.73;99790.34;1620961;86;21330;-75
2022/12/29 12:00:35;;;;;;;3.17;1.40;;;;;;;14.70;66.29;99786.50;1620889;86;21065;-79
2022/12/29 12:03:16;;;;;;;2.80;1.20;;;;;;;14.63;66.24;99782.55;1621191;86;21643;-78
2022/12/29 12:05:57;;;;;;;3.55;1.30;;;;;;;14.63;66.26;99782.55;1621100;86;21160;-75
2022/12/29 12:08:56;;;;;;;3.80;1.32;;;;;;;14.62;66.01;99794.06;1621618;86;22099;-77
2022/12/29 12:11:41;;;;;;;2.22;1.40;;;;;;;14.68;65.73;99781.80;1621637;86;21808;-80
2022/12/29 12:14:26;;;;;;;3.42;2.00;;;;;;;14.60;65.26;99779.63;1621773;86;21056;-74
2022/12/29 12:17:07;;;;;;;3.58;1.98;;;;;;;14.60;65.26;99779.63;1621228;86;21303;-75
2022/12/29 12:20:01;;;;;;;4.65;2.55;;;;;;;14.59;65.08;99781.91;1621819;86;21088;-75
2022/12/29 12:22:48;;;;;;;10.35;4.83;;;;;;;14.50;64.91;99774.08;1621696;86;21096;-74
2022/12/29 12:25:20;;;;;;;8.95;3.58;;;;;;;14.44;65.09;99780.23;1621712;86;21219;-76
2022/12/29 12:28:11;;;;;;;4.20;2.15;;;;;;;14.45;65.01;99772.68;1622145;86;21072;-76
2022/12/29 12:30:43;;;;;;;3.52;1.80;;;;;;;14.41;64.73;99798.84;1621853;86;21601;-74
2022/12/29 12:33:24;;;;;;;3.92;1.92;;;;;;;14.26;64.81;99774.30;1620211;86;21083;-80
2022/12/29 12:36:27;;;;;;;5.05;2.00;;;;;;;14.20;64.62;99772.89;1621435;86;21086;-77
2022/12/29 12:39:33;;;;;;;4.70;1.90;;;;;;;14.05;64.07;99769.91;1618154;86;21147;-78
2022/12/29 12:42:36;;;;;;;29.92;14.00;;;;;;;13.84;64.11;99779.95;1616418;86;21100;-73
2022/12/29 12:45:55;;;;;;;9.05;4.25;;;;;;;13.68;64.35;99785.75;1618523;86;21512;-74